Time;durP1;ratioP1;P1;durP2;ratioP2;P2;SDS_P1;SDS_P2;PMS_P1;PMS_P2;Temp;Humidity;BMP_temperature;BMP_pressure;BME280_temperature;BME280_humidity;BME280_pressure;Samples;Min_cycle;Max_cycle;Signal;HPM_P1;HPM_P2
2022/05/12 00:00:38;;;;;;;21.55;6.30;;;11.70;99.90;;;10.51;100.00;100317.75;4946184;28;20121;-76
2022/05/12 00:03:06;;;;;;;19.15;6.45;;;11.70;99.90;;;10.53;100.00;100301.88;4923174;28;20690;-76
2022/05/12 00:05:32;;;;;;;19.25;5.95;;;11.70;99.90;;;10.48;100.00;100299.50;4924851;28;20022;-76
2022/05/12 00:08:05;;;;;;;16.10;6.93;;;11.60;99.90;;;10.49;100.00;100301.19;4932853;28;20030;-76
2022/05/12 00:10:30;;;;;;;16.90;6.65;;;11.60;99.90;;;10.46;100.00;100304.84;4960251;28;20092;-76
2022/05/12 00:12:58;;;;;;;18.50;6.82;;;11.60;99.90;;;10.41;100.00;100316.53;4944609;28;20039;-76
2022/05/12 00:15:28;;;;;;;17.33;6.05;;;11.50;99.90;;;10.35;100.00;100320.34;4941223;28;20584;-76
2022/05/12 00:17:54;;;;;;;17.25;6.28;;;11.50;99.90;;;10.34;100.00;100330.94;4919523;28;20036;-77
2022/05/12 00:20:23;;;;;;;16.10;5.65;;;12.60;99.90;;;10.38;100.00;100329.84;4939579;28;22863;-76
2022/05/12 00:22:49;;;;;;;16.73;5.82;;;11.50;99.90;;;10.40;100.00;100326.22;4949010;28;20039;-76
2022/05/12 00:25:22;;;;;;;16.58;5.75;;;11.50;99.90;;;10.40;100.00;100312.22;4933830;28;20029;-75
2022/05/12 00:27:48;;;;;;;16.73;5.82;;;11.50;99.90;;;10.40;100.00;100310.41;4943637;28;20525;-76
2022/05/12 00:30:14;;;;;;;17.75;6.20;;;11.60;99.90;;;10.43;100.00;100307.66;4964313;28;20035;-76
2022/05/12 00:32:45;;;;;;;28.27;6.22;;;11.60;99.90;;;10.46;100.00;100310.09;4929315;28;20459;-76
2022/05/12 00:35:14;;;;;;;14.95;4.90;;;11.60;99.90;;;10.53;100.00;100304.50;4946263;28;20031;-76
2022/05/12 00:37:39;;;;;;;16.90;4.95;;;11.60;99.90;;;10.54;100.00;100291.28;4954866;28;20102;-76
2022/05/12 00:40:06;;;;;;;14.20;4.25;;;11.70;99.90;;;10.51;100.00;100272.16;4930533;28;20035;-76
2022/05/12 00:42:32;;;;;;;7.70;3.65;;;11.70;99.90;;;10.60;100.00;100267.22;4955972;28;20848;-75
2022/05/12 00:44:58;;;;;;;9.68;3.67;;;11.70;99.90;;;10.67;100.00;100260.72;4947353;28;20038;-75
2022/05/12 00:47:23;;;;;;;13.52;3.60;;;11.80;99.90;;;10.73;100.00;100248.97;4927619;28;20574;-76
2022/05/12 00:49:51;;;;;;;13.00;3.60;;;11.80;99.90;;;10.79;100.00;100258.34;4945757;28;20035;-76
2022/05/12 00:52:24;;;;;;;15.23;3.65;;;11.90;99.90;;;10.83;100.00;100257.25;4943514;28;20039;-76
2022/05/12 00:55:05;;;;;;;15.40;3.53;;;11.90;99.90;;;10.86;100.00;100268.47;4935602;28;20086;-75
2022/05/12 00:57:37;;;;;;;16.40;3.72;;;12.00;99.90;;;10.93;100.00;100284.78;4943235;28;21252;-76
2022/05/12 01:00:08;;;;;;;15.45;4.22;;;12.20;99.90;;;10.96;100.00;100291.66;4949263;28;20051;-76
2022/05/12 01:02:35;;;;;;;15.00;4.72;;;12.00;99.90;;;10.97;100.00;100290.72;4933809;28;20041;-76
2022/05/12 01:05:01;;;;;;;13.05;4.93;;;12.10;99.90;;;10.96;100.00;100297.78;4945895;28;20034;-76
2022/05/12 01:07:27;;;;;;;15.13;5.03;;;12.10;99.90;;;11.00;100.00;100316.91;4920256;28;20065;-77
2022/05/12 01:09:53;;;;;;;20.08;5.40;;;12.10;99.90;;;10.97;100.00;100281.06;4910701;28;20037;-76
2022/05/12 01:12:19;;;;;;;16.63;5.47;;;12.10;99.90;;;10.93;100.00;100268.97;4942591;28;20038;-76
2022/05/12 01:14:44;;;;;;;11.77;5.32;;;12.10;99.90;;;10.95;100.00;100277.66;4929810;28;20023;-76
2022/05/12 01:17:10;;;;;;;18.75;5.20;;;12.10;99.90;;;10.99;100.00;100249.34;4934123;28;20391;-76
2022/05/12 01:19:41;;;;;;;18.52;5.57;;;12.10;99.90;;;11.01;100.00;100256.22;4941881;28;20028;-76
2022/05/12 01:22:28;;;;;;;17.35;5.93;;;12.10;99.90;;;11.03;100.00;100251.69;4954088;28;20039;-76
2022/05/12 01:24:54;;;;;;;15.43;6.18;;;12.10;99.90;;;11.05;100.00;100256.91;4950890;28;20443;-77
2022/05/12 01:27:20;;;;;;;17.30;5.68;;;12.10;99.90;;;11.08;100.00;100264.66;4930540;28;20027;-77
2022/05/12 01:29:52;;;;;;;18.60;6.22;;;12.20;99.90;;;11.11;100.00;100264.47;4945800;28;20031;-77
2022/05/12 01:32:19;;;;;;;17.65;5.93;;;12.20;99.90;;;11.10;100.00;100265.41;4943877;28;20054;-77
2022/05/12 01:34:46;;;;;;;14.30;5.25;;;12.20;99.90;;;11.04;100.00;100261.31;4899432;28;20028;-77
2022/05/12 01:37:11;;;;;;;14.52;5.40;;;12.20;99.90;;;11.05;100.00;100268.28;4950646;28;20102;-77
2022/05/12 01:39:37;;;;;;;16.67;4.95;;;12.20;99.90;;;11.02;100.00;100251.81;4934956;28;20022;-77
2022/05/12 01:42:09;;;;;;;16.10;4.82;;;12.20;99.90;;;11.03;100.00;100237.69;4943066;28;20042;-78
2022/05/12 01:44:37;;;;;;;18.05;6.45;;;12.20;99.90;;;11.07;100.00;100224.25;4922675;28;20028;-78
2022/05/12 01:47:04;;;;;;;15.45;4.38;;;12.20;99.90;;;11.12;100.00;100241.59;4918223;28;20023;-77
2022/05/12 01:49:30;;;;;;;20.40;5.28;;;12.20;99.90;;;11.13;100.00;100249.41;4932826;28;20026;-78
2022/05/12 01:52:00;;;;;;;19.05;5.53;;;12.20;99.90;;;11.16;100.00;100251.03;4922703;28;20578;-78
2022/05/12 01:54:29;;;;;;;18.52;5.65;;;12.20;99.90;;;11.17;100.00;100237.78;4913345;28;20069;-78
2022/05/12 01:56:55;;;;;;;17.52;6.10;;;12.20;99.90;;;11.21;100.00;100209.44;4938345;28;20046;-78
2022/05/12 01:59:21;;;;;;;17.20;5.97;;;12.20;99.90;;;11.15;100.00;100221.19;4924064;28;20462;-78
2022/05/12 02:01:47;;;;;;;20.33;6.80;;;12.30;99.90;;;11.17;100.00;100203.50;4919393;28;20073;-78
2022/05/12 02:04:15;;;;;;;20.83;6.30;;;12.30;99.90;;;11.21;100.00;100193.63;4895449;28;20051;-78
2022/05/12 02:06:44;;;;;;;36.17;10.98;;;12.30;99.90;;;11.15;100.00;100181.66;4916037;28;20031;-78
2022/05/12 02:09:10;;;;;;;20.77;6.13;;;12.20;99.90;;;11.12;100.00;100176.56;4924312;28;20027;-78
2022/05/12 02:11:37;;;;;;;15.60;6.57;;;12.20;99.90;;;11.07;100.00;100183.88;4917447;28;20059;-78
2022/05/12 02:14:04;;;;;;;22.92;6.85;;;12.20;99.90;;;10.97;100.00;100182.72;4927002;28;20039;-78
2022/05/12 02:16:31;;;;;;;18.00;7.03;;;12.10;99.90;;;10.91;100.00;100194.47;4932304;28;21383;-78
2022/05/12 02:18:59;;;;;;;22.63;7.68;;;12.00;99.90;;;10.90;100.00;100199.81;4933379;28;20029;-78
2022/05/12 02:21:25;;;;;;;20.77;8.00;;;12.00;99.90;;;10.87;100.00;100196.41;4928364;28;20257;-79
2022/05/12 02:23:50;;;;;;;18.73;7.43;;;12.00;99.90;;;10.88;100.00;100202.50;4942953;28;20515;-78
2022/05/12 02:26:16;;;;;;;25.00;8.75;;;12.00;99.90;;;10.90;100.00;100194.53;4918671;28;20042;-78
2022/05/12 02:28:42;;;;;;;18.85;8.05;;;12.00;99.90;;;10.94;100.00;100188.16;4900870;28;20082;-78
2022/05/12 02:31:08;;;;;;;23.08;8.32;;;12.10;99.90;;;10.94;100.00;100186.38;4940030;28;20634;-79
2022/05/12 02:33:36;;;;;;;18.80;8.15;;;12.10;99.90;;;10.93;100.00;100179.41;4952706;28;20035;-78
2022/05/12 02:36:05;;;;;;;31.05;8.65;;;12.10;99.90;;;10.95;100.00;100176.69;4902732;28;20038;-78
2022/05/12 02:38:31;;;;;;;22.85;8.23;;;12.10;99.90;;;10.96;100.00;100181.03;4893196;28;20027;-78
2022/05/12 02:40:57;;;;;;;24.85;8.43;;;12.10;99.90;;;10.98;100.00;100182.63;4939935;28;20071;-78
2022/05/12 02:43:25;;;;;;;25.08;9.00;;;12.10;99.90;;;11.03;100.00;100182.38;4921807;28;20180;-77
2022/05/12 02:46:02;;;;;;;23.58;9.32;;;12.10;99.90;;;11.05;100.00;100194.50;4936724;28;20479;-78
2022/05/12 02:48:33;;;;;;;23.25;9.57;;;12.10;99.90;;;11.03;100.00;100190.28;4928384;28;20041;-78
2022/05/12 02:50:59;;;;;;;28.35;9.60;;;12.20;99.90;;;11.03;100.00;100195.53;4908376;28;20118;-78
2022/05/12 02:53:27;;;;;;;22.38;10.23;;;12.20;99.90;;;10.98;100.00;100193.16;4907687;28;20046;-78
2022/05/12 02:55:52;;;;;;;30.27;9.55;;;12.10;99.90;;;10.99;100.00;100205.41;4915349;28;20035;-77
2022/05/12 02:58:18;;;;;;;25.48;9.00;;;12.10;99.90;;;10.98;100.00;100201.06;4927144;28;20038;-78
2022/05/12 03:00:46;;;;;;;19.70;8.60;;;12.10;99.90;;;10.99;100.00;100202.78;4907477;28;20035;-78
2022/05/12 03:03:14;;;;;;;27.73;9.48;;;12.10;99.90;;;11.01;100.00;100206.16;4918846;28;20037;-78
2022/05/12 03:05:41;;;;;;;27.05;9.80;;;12.10;99.90;;;11.01;100.00;100210.56;4915264;28;20357;-78
2022/05/12 03:08:09;;;;;;;27.27;9.15;;;12.20;99.90;;;10.98;100.00;100198.44;4911646;28;20030;-78
2022/05/12 03:10:36;;;;;;;23.08;9.00;;;12.10;99.90;;;11.00;100.00;100198.34;4920556;28;20073;-77
2022/05/12 03:13:05;;;;;;;22.88;9.88;;;12.10;99.90;;;11.00;100.00;100208.91;4928982;28;20058;-78
2022/05/12 03:15:31;;;;;;;26.88;9.38;;;12.10;99.90;;;11.00;100.00;100208.91;4921715;28;20038;-78
2022/05/12 03:17:58;;;;;;;20.90;9.70;;;12.10;99.90;;;11.01;100.00;100211.41;4887896;28;20432;-77
2022/05/12 03:20:26;;;;;;;24.27;9.80;;;12.20;99.90;;;11.03;100.00;100211.34;4931128;28;20118;-78
2022/05/12 03:22:53;;;;;;;26.42;8.85;;;12.20;99.90;;;11.04;100.00;100211.25;4930242;28;20023;-79
2022/05/12 03:25:27;;;;;;;28.88;8.68;;;12.20;99.90;;;11.04;100.00;100202.53;4934761;28;20057;-78
2022/05/12 03:27:53;;;;;;;19.35;8.77;;;12.20;99.90;;;11.03;100.00;100206.06;4910025;28;22076;-78
2022/05/12 03:30:23;;;;;;;26.30;10.00;;;12.20;99.90;;;11.02;100.00;100207.88;4930402;28;20022;-78
2022/05/12 03:32:51;;;;;;;31.20;9.25;;;12.20;99.90;;;11.02;100.00;100209.66;4928059;28;20141;-78
2022/05/12 03:35:18;;;;;;;20.48;9.45;;;12.20;99.90;;;11.02;100.00;100213.13;4944624;28;20054;-78
2022/05/12 03:37:45;;;;;;;27.67;8.73;;;12.20;99.90;;;11.02;100.00;100220.19;4909822;28;20031;-78
2022/05/12 03:40:17;;;;;;;21.17;8.45;;;12.20;99.90;;;11.05;100.00;100214.75;4911405;28;20031;-78
2022/05/12 03:42:43;;;;;;;23.90;7.82;;;12.20;99.90;;;11.08;100.00;100214.59;4911261;28;20041;-78
2022/05/12 03:45:09;;;;;;;24.88;8.30;;;12.20;99.90;;;11.11;100.00;100216.19;4928934;28;20026;-78
2022/05/12 03:47:38;;;;;;;28.90;8.82;;;12.20;99.90;;;11.12;100.00;100215.25;4908925;28;20765;-78
2022/05/12 03:50:13;;;;;;;25.60;8.88;;;12.30;99.90;;;11.11;100.00;100217.03;4894129;28;20038;-78
2022/05/12 03:52:39;;;;;;;22.40;8.02;;;12.30;99.90;;;11.18;100.00;100220.16;4940401;28;20039;-78
2022/05/12 03:55:08;;;;;;;28.95;8.00;;;12.30;99.90;;;11.22;100.00;100233.06;4891702;28;20024;-78
2022/05/12 03:57:34;;;;;;;24.67;8.05;;;12.40;99.90;;;11.29;100.00;100231.81;4921849;28;20027;-79
2022/05/12 04:00:08;;;;;;;20.42;7.28;;;12.40;99.90;;;11.36;100.00;100239.34;4932422;28;20074;-78
2022/05/12 04:02:34;;;;;;;19.20;6.70;;;12.50;99.90;;;11.39;100.00;100234.75;4902896;28;20030;-77
2022/05/12 04:05:00;;;;;;;25.35;6.57;;;12.50;99.90;;;11.47;100.00;100247.50;4938461;28;20608;-78
2022/05/12 04:07:26;;;;;;;18.80;6.55;;;12.60;99.90;;;11.59;100.00;100246.75;4935714;28;20042;-78
2022/05/12 04:09:54;;;;;;;16.73;6.13;;;12.70;99.90;;;11.65;100.00;100251.69;4915197;28;20049;-78
2022/05/12 04:12:20;;;;;;;18.20;5.90;;;12.80;99.90;;;11.75;100.00;100261.69;4899103;28;20038;-78
2022/05/12 04:14:46;;;;;;;22.65;5.57;;;12.80;99.90;;;11.80;100.00;100259.66;4914632;28;20031;-78
2022/05/12 04:17:15;;;;;;;16.55;5.25;;;12.90;99.90;;;11.86;100.00;100256.66;4909783;28;20027;-78
2022/05/12 04:19:45;;;;;;;16.48;5.13;;;12.90;99.90;;;11.94;100.00;100267.59;4939886;28;20388;-78
2022/05/12 04:22:11;;;;;;;17.50;4.65;;;13.00;99.90;;;12.03;100.00;100267.06;4928172;28;20031;-78
2022/05/12 04:24:37;;;;;;;14.25;5.05;;;13.10;99.90;;;12.15;100.00;100285.75;4918554;28;20540;-77
2022/05/12 04:27:03;;;;;;;17.70;5.30;;;13.20;99.90;;;12.21;100.00;100282.75;4935154;28;20048;-78
2022/05/12 04:29:29;;;;;;;18.02;5.60;;;13.20;99.90;;;12.27;100.00;100277.09;4909490;28;20153;-78
2022/05/12 04:31:54;;;;;;;15.93;4.72;;;13.30;99.90;;;12.42;100.00;100293.75;4919375;28;20530;-77
2022/05/12 04:37:06;;;;;;;21.02;5.55;;;14.30;99.90;;;14.40;100.00;100307.34;4908150;28;20062;-78
2022/05/12 04:39:32;;;;;;;14.70;4.32;;;15.70;99.90;;;17.40;86.23;100322.06;4918035;28;21187;-78
2022/05/12 04:41:58;;;;;;;14.00;4.13;;;16.60;99.90;;;17.35;79.00;100333.09;4931275;28;20030;-78
2022/05/12 04:44:26;;;;;;;19.52;4.38;;;16.80;99.90;;;16.77;78.24;100346.53;4896774;28;20026;-77
2022/05/12 04:46:52;;;;;;;15.85;4.40;;;16.70;99.90;;;16.08;80.21;100343.91;4915084;28;20033;-77
2022/05/12 04:49:18;;;;;;;18.13;4.05;;;16.60;99.90;;;16.07;81.64;100357.28;4930713;28;20051;-78
2022/05/12 04:51:44;;;;;;;18.08;3.78;;;17.00;99.90;;;17.29;79.65;100351.38;4928150;28;20113;-78
2022/05/12 04:54:14;;;;;;;19.23;4.72;;;16.90;99.90;;;16.19;79.75;100365.16;4936198;28;20035;-78
2022/05/12 04:56:41;;;;;;;13.82;4.22;;;16.90;99.90;;;15.88;81.59;100360.50;4924982;28;20049;-77
2022/05/12 04:59:08;;;;;;;16.85;4.10;;;16.80;99.90;;;15.61;84.03;100382.75;4915462;28;20029;-77
2022/05/12 05:01:38;;;;;;;12.82;4.15;;;16.70;99.90;;;15.44;85.71;100391.94;4920991;28;20464;-78
2022/05/12 05:04:04;;;;;;;12.82;4.32;;;16.40;99.90;;;14.92;86.48;100399.19;4937172;28;20042;-78
2022/05/12 05:06:31;;;;;;;16.60;4.00;;;16.20;99.90;;;14.83;88.79;100391.00;4929178;28;20045;-77
2022/05/12 05:08:58;;;;;;;9.85;3.78;;;16.00;99.90;;;14.57;90.05;100394.50;4915582;28;20503;-77
2022/05/12 05:11:24;;;;;;;12.93;3.47;;;15.90;99.90;;;14.44;91.46;100393.59;4930847;28;20110;-76
2022/05/12 05:13:50;;;;;;;5.88;2.50;;;15.60;99.90;;;13.92;91.87;100412.97;4964502;23;20437;-77
2022/05/12 05:16:23;;;;;;;;;;;15.60;99.90;;;13.31;94.45;100421.25;4965518;28;20683;-78
2022/05/12 05:18:49;;;;;;;9.07;2.40;;;14.90;99.90;;;12.97;99.16;100438.31;5000468;28;20439;-77
2022/05/12 05:21:15;;;;;;;10.30;2.47;;;14.70;99.90;;;12.84;100.00;100448.78;5002258;28;20026;-77
2022/05/12 05:23:40;;;;;;;7.85;1.80;;;14.40;99.90;;;12.55;100.00;100458.47;4965199;28;20081;-77
2022/05/12 05:26:08;;;;;;;3.17;1.13;;;14.20;99.90;;;12.46;100.00;100465.16;4990120;28;20029;-77
2022/05/12 05:28:37;;;;;;;2.83;0.90;;;14.10;99.90;;;12.48;100.00;100467.69;4920075;28;20034;-77
2022/05/12 05:31:04;;;;;;;3.13;1.00;;;14.10;99.90;;;12.50;100.00;100481.66;4982776;28;20367;-77
2022/05/12 05:33:30;;;;;;;1.23;0.60;;;14.00;99.90;;;12.48;100.00;100487.03;4991871;28;20056;-77
2022/05/12 05:35:57;;;;;;;1.55;0.47;;;13.90;99.90;;;12.36;100.00;100500.94;4974175;28;20030;-76
2022/05/12 05:38:23;;;;;;;1.65;0.57;;;13.90;99.90;;;12.35;100.00;100515.06;4950142;28;20108;-78
2022/05/12 05:40:49;;;;;;;2.85;0.60;;;14.10;99.90;;;13.40;96.61;100530.91;4977863;28;20446;-78
2022/05/12 05:43:15;;;;;;;0.95;0.38;;;14.20;99.90;;;14.28;93.21;100549.22;4990690;28;20026;-76
2022/05/12 05:45:41;;;;;;;2.63;0.40;;;14.30;99.90;;;13.12;91.54;100566.06;5001544;28;20026;-76
2022/05/12 05:48:07;;;;;;;1.77;0.38;;;14.30;99.90;;;13.14;90.26;100574.75;4973129;28;20026;-77
2022/05/12 05:53:24;;;;;;;1.55;0.65;;;15.20;99.90;;;15.54;78.60;100593.81;4967054;28;20104;-78
2022/05/12 05:55:52;;;;;;;1.77;0.50;;;15.80;99.90;;;17.80;70.47;100609.06;4978660;28;20048;-77
2022/05/12 05:58:18;;;;;;;2.65;0.60;;;16.90;99.90;;;20.15;59.21;100615.31;5001698;28;20069;-77
2022/05/12 06:00:43;;;;;;;0.50;0.50;;;18.30;99.90;;;22.23;54.40;100629.16;4968936;28;20048;-76
2022/05/12 06:03:10;;;;;;;3.53;0.40;;;19.20;99.90;;;22.45;51.93;100646.66;4950311;28;20034;-79
2022/05/12 06:05:38;;;;;;;1.05;0.38;;;20.00;99.90;;;23.23;49.85;100663.03;4958028;28;20042;-78
2022/05/12 06:08:08;;;;;;;0.73;0.22;;;20.70;99.90;;;22.06;49.28;100676.31;4941704;28;20659;-77
2022/05/12 06:10:34;;;;;;;5.15;0.57;;;20.30;99.90;;;20.27;54.74;100675.75;4955030;28;20031;-77
2022/05/12 06:13:00;;;;;;;3.47;0.40;;;20.10;99.90;;;20.37;53.97;100691.84;4959238;28;20517;-76
2022/05/12 06:15:29;;;;;;;2.13;0.55;;;19.20;99.90;;;18.14;60.73;100689.88;4978942;28;20028;-78
2022/05/12 06:17:55;;;;;;;0.93;0.40;;;18.60;99.90;;;18.46;59.40;100697.09;4987839;28;20117;-78
2022/05/12 06:20:23;;;;;;;1.75;0.40;;;18.40;99.90;;;17.79;60.87;100713.88;4962467;28;20040;-77
2022/05/12 06:22:49;;;;;;;1.60;0.70;;;17.80;99.90;;;16.28;64.32;100724.09;4981988;28;20036;-77
2022/05/12 06:25:17;;;;;;;3.38;0.40;;;17.20;99.90;;;15.90;67.36;100719.69;5016594;28;20045;-76
2022/05/12 06:27:45;;;;;;;3.70;0.47;;;17.70;99.90;;;19.17;60.23;100721.56;4962070;28;20033;-77
2022/05/12 06:30:13;;;;;;;5.78;0.50;;;18.10;99.90;;;19.68;59.07;100728.03;4970034;28;20033;-78
2022/05/12 06:32:41;;;;;;;0.90;0.40;;;18.80;99.90;;;20.94;53.84;100740.28;4962452;28;20033;-77
2022/05/12 06:35:09;;;;;;;1.85;0.40;;;19.50;99.90;;;21.27;52.83;100744.41;4971329;28;20081;-77
2022/05/12 06:37:40;;;;;;;5.22;0.60;;;19.50;99.90;;;18.57;58.66;100753.06;4971240;28;20073;-77
2022/05/12 06:40:07;;;;;;;2.67;0.80;;;19.00;99.90;;;17.12;61.67;100757.09;4938051;28;20033;-77
2022/05/12 06:42:35;;;;;;;5.10;0.70;;;18.00;99.90;;;15.87;65.16;100770.31;4962203;28;20028;-77
2022/05/12 06:45:01;;;;;;;4.00;0.70;;;17.30;99.90;;;15.77;67.01;100768.28;4966135;28;20026;-77
2022/05/12 06:47:37;;;;;;;5.53;0.80;;;17.10;99.90;;;15.69;68.51;100773.22;4969702;28;20029;-77
2022/05/12 06:50:04;;;;;;;3.42;1.13;;;16.70;99.90;;;15.11;69.64;100790.34;4960661;28;20030;-78
2022/05/12 06:52:30;;;;;;;3.25;1.00;;;16.10;99.90;;;14.20;72.03;100788.03;4968162;28;20026;-77
2022/05/12 06:54:59;;;;;;;9.75;1.45;;;16.00;99.90;;;15.48;71.49;100798.56;4947349;28;20030;-77
2022/05/12 06:57:28;;;;;;;4.22;0.90;;;16.90;99.90;;;18.33;62.20;100801.19;4975669;28;20501;-77
2022/05/12 06:59:55;;;;;;;3.28;0.70;;;18.20;99.90;;;19.73;56.83;100819.31;4981217;28;20053;-77
2022/05/12 07:02:22;;;;;;;8.25;1.02;;;19.00;99.90;;;19.50;56.81;100823.03;4960880;28;20101;-77
2022/05/12 07:04:51;;;;;;;1.67;0.85;;;18.60;99.90;;;16.97;59.17;100837.03;4941762;28;20037;-76
2022/05/12 07:07:20;;;;;;;5.22;1.10;;;17.90;99.90;;;17.36;61.37;100847.56;4977738;28;20464;-76
2022/05/12 07:09:46;;;;;;;5.88;1.10;;;18.50;99.90;;;19.19;57.45;100849.56;4968075;28;20031;-77
2022/05/12 07:12:13;;;;;;;7.68;1.67;;;19.20;99.90;;;18.98;58.50;100879.66;4994757;28;20110;-77
2022/05/12 07:14:41;;;;;;;7.60;1.52;;;18.40;99.90;;;16.63;62.75;100890.88;4973633;28;20128;-77
2022/05/12 07:17:07;;;;;;;9.30;1.73;;;17.60;99.90;;;15.75;66.45;100884.34;4956120;28;20159;-78
2022/05/12 07:19:33;;;;;;;5.57;1.55;;;17.70;99.90;;;17.70;62.77;100896.53;4971852;28;20064;-77
2022/05/12 07:27:30;;;;;;;8.40;1.50;;;20.00;99.90;;;20.21;54.65;100909.69;4993517;28;19948;-76
2022/05/12 07:29:58;;;;;;;7.55;1.60;;;20.10;99.90;;;19.20;55.55;100923.31;4985630;28;20042;-77
2022/05/12 07:32:24;;;;;;;7.53;1.55;;;19.80;99.90;;;18.80;56.12;100918.47;4964580;28;20089;-78
2022/05/12 07:34:49;;;;;;;14.23;1.70;;;19.50;99.90;;;19.00;57.09;100932.91;4947898;28;20062;-77
2022/05/12 07:37:15;;;;;;;7.50;1.80;;;20.00;99.90;;;19.70;55.36;100936.25;4972974;28;20038;-77
2022/05/12 07:39:41;;;;;;;8.50;1.73;;;20.60;99.90;;;20.99;52.04;100947.69;4973772;28;20035;-77
2022/05/12 07:42:07;;;;;;;6.28;1.23;;;20.80;99.90;;;20.04;51.51;100955.72;4965638;28;20049;-76
2022/05/12 07:44:34;;;;;;;7.35;1.55;;;20.50;99.90;;;19.93;53.74;100969.13;4949639;28;20428;-77
2022/05/12 07:47:09;;;;;;;5.10;1.10;;;20.30;99.90;;;19.97;52.47;100959.88;4973116;28;20049;-77
2022/05/12 07:49:36;;;;;;;4.87;1.20;;;20.50;99.90;;;20.33;51.15;100971.16;4962015;28;20033;-77
2022/05/12 07:52:08;;;;;;;7.95;1.45;;;20.60;99.90;;;20.43;50.50;100972.94;4952587;28;20042;-77
2022/05/12 07:54:35;;;;;;;4.50;1.40;;;20.30;99.90;;;19.20;51.02;100979.38;4989253;28;20047;-76
2022/05/12 07:57:02;;;;;;;9.13;1.23;;;20.30;99.90;;;19.89;52.07;100987.22;4960164;28;20035;-76
2022/05/12 07:59:29;;;;;;;5.88;1.48;;;20.60;99.90;;;20.43;51.24;100990.78;4963330;28;20030;-75
2022/05/12 08:01:58;;;;;;;8.63;1.60;;;20.60;99.90;;;19.58;51.55;101004.88;4982712;28;20049;-76
2022/05/12 08:04:25;;;;;;;5.55;1.42;;;20.40;99.90;;;18.92;53.45;101010.91;4961174;28;20738;-76
2022/05/12 08:06:51;;;;;;;5.78;1.35;;;19.70;99.90;;;18.68;54.93;101028.75;4976797;28;20153;-76
2022/05/12 08:09:17;;;;;;;2.92;1.00;;;19.00;99.90;;;17.77;55.93;101027.41;4987861;28;20907;-76
2022/05/12 08:11:44;;;;;;;11.57;1.50;;;19.00;99.90;;;18.59;54.93;101025.81;4965250;28;20038;-75
2022/05/12 08:14:10;;;;;;;6.45;1.70;;;19.30;99.90;;;19.04;54.02;101027.78;4991540;28;20469;-76
2022/05/12 08:16:37;;;;;;;6.13;1.15;;;19.50;99.90;;;19.15;52.19;101032.28;4973458;28;20045;-76
2022/05/12 08:19:04;;;;;;;8.60;1.50;;;19.00;99.90;;;18.13;55.78;101039.91;4972311;28;20756;-76
2022/05/12 08:21:30;;;;;;;6.68;1.25;;;19.20;99.90;;;18.74;54.92;101053.13;4997285;28;20026;-75
2022/05/12 08:23:56;;;;;;;8.68;1.80;;;18.80;99.90;;;17.63;58.54;101063.03;4983994;28;20026;-75
2022/05/12 08:26:23;;;;;;;2.20;0.95;;;18.50;99.90;;;17.57;55.51;101052.81;4975178;28;20041;-75
2022/05/12 08:28:50;;;;;;;11.18;1.10;;;18.10;99.90;;;17.53;56.16;101078.78;4989847;28;20038;-76
2022/05/12 08:31:24;;;;;;;6.18;1.10;;;18.50;99.90;;;18.51;54.68;101080.69;5002398;28;20049;-76
2022/05/12 08:33:50;;;;;;;5.57;1.70;;;19.10;99.90;;;19.48;54.28;101092.88;4978271;28;20413;-75
2022/05/12 08:36:16;;;;;;;6.97;1.40;;;19.50;99.90;;;19.54;53.30;101096.88;4987362;28;20046;-75
2022/05/12 08:38:44;;;;;;;8.90;1.30;;;19.10;99.90;;;17.88;53.90;101107.44;4975197;28;20109;-76
2022/05/12 08:41:24;;;;;;;6.93;1.33;;;18.80;99.90;;;18.17;56.13;101101.84;4963585;28;20097;-75
2022/05/12 08:44:13;;;;;;;5.45;0.60;;;19.10;99.90;;;18.67;52.54;101110.59;4970564;28;20059;-76
2022/05/12 08:46:47;;;;;;;4.47;0.90;;;19.10;99.90;;;18.31;53.45;101114.16;4971343;28;20036;-76
2022/05/12 08:49:35;;;;;;;9.30;1.35;;;19.00;99.90;;;18.42;56.60;101125.75;4971826;28;20522;-75
2022/05/12 08:52:29;;;;;;;5.82;1.40;;;19.10;99.90;;;18.28;55.84;101136.56;4966475;28;20027;-75
2022/05/12 08:55:18;;;;;;;6.93;1.02;;;18.80;99.90;;;17.43;54.82;101147.81;4993878;28;20132;-75
2022/05/12 08:58:23;;;;;;;10.25;1.48;;;18.50;99.90;;;17.65;56.34;101156.97;4996744;28;20093;-75
2022/05/12 09:01:15;;;;;;;5.47;1.00;;;18.60;99.90;;;17.90;53.98;101161.47;4963698;28;20081;-75
2022/05/12 09:04:14;;;;;;;4.05;1.00;;;18.80;99.90;;;18.47;54.25;101175.22;4971989;28;20033;-75
2022/05/12 09:07:04;;;;;;;7.80;1.10;;;19.10;99.90;;;18.55;52.64;101181.69;4994035;28;20051;-76
2022/05/12 09:10:00;;;;;;;5.90;1.20;;;19.30;99.90;;;18.89;53.93;101187.22;4984053;28;20029;-76
2022/05/12 09:12:40;;;;;;;7.03;1.20;;;19.50;99.90;;;18.77;53.35;101183.63;4978017;28;20033;-76
2022/05/12 09:15:44;;;;;;;6.93;1.40;;;19.20;99.90;;;17.87;53.71;101198.13;4991470;28;20018;-76
2022/05/12 09:18:26;;;;;;;7.07;1.17;;;19.00;99.90;;;18.37;54.91;101191.03;4964565;28;20033;-76
2022/05/12 09:20:52;;;;;;;4.53;1.25;;;19.20;99.90;;;18.65;53.76;101200.53;4999633;28;20029;-75
2022/05/12 09:23:27;;;;;;;6.47;1.50;;;19.50;99.90;;;19.09;53.62;101200.91;4956183;28;20025;-74
2022/05/12 09:25:58;;;;;;;9.32;2.08;;;19.60;99.90;;;18.58;53.98;101202.78;4999486;28;20029;-75
2022/05/12 09:28:35;;;;;;;4.43;0.98;;;19.30;99.90;;;18.11;54.63;101203.53;4966826;28;20051;-75
2022/05/12 09:31:08;;;;;;;4.35;0.77;;;19.30;99.80;;;18.18;53.44;101218.97;4995749;28;20331;-74
2022/05/12 09:33:47;;;;;;;7.13;1.30;;;19.20;99.90;;;18.21;53.07;101216.13;4969158;28;20147;-75
2022/05/12 09:36:29;;;;;;;6.80;1.10;;;19.00;99.90;;;17.97;52.90;101210.72;4970431;28;20105;-75
2022/05/12 09:38:58;;;;;;;5.35;1.38;;;18.80;99.90;;;17.73;54.15;101218.56;4990112;28;20486;-76
2022/05/12 09:41:49;;;;;;;5.90;0.80;;;19.10;99.90;;;18.49;53.67;101211.47;4995404;28;20397;-76
2022/05/12 09:44:28;;;;;;;5.18;0.88;;;19.40;99.90;;;18.59;52.15;101200.97;4989637;28;20228;-76
2022/05/12 09:47:16;;;;;;;11.13;1.10;;;19.20;99.90;;;18.32;54.02;101215.34;4977980;28;20033;-76
2022/05/12 09:49:46;;;;;;;3.28;0.90;;;19.60;99.90;;;18.97;52.26;101222.22;4964416;28;20027;-76
2022/05/12 09:52:36;;;;;;;7.40;1.00;;;19.40;99.90;;;18.51;53.18;101225.56;4954639;28;20062;-75
2022/05/12 09:55:36;;;;;;;4.85;1.08;;;19.60;99.90;;;19.19;52.77;101220.59;4974727;28;20053;-75
2022/05/12 09:58:16;;;;;;;4.47;1.00;;;20.00;99.90;;;19.49;52.20;101221.94;4979783;28;20096;-75
2022/05/12 10:01:06;;;;;;;4.40;1.10;;;20.00;99.90;;;19.20;52.67;101231.19;4983089;28;20105;-75
2022/05/12 10:09:31;;;;;;;7.25;1.17;;;20.50;98.50;;;19.57;49.86;101236.41;4993129;28;20024;-75
2022/05/12 10:12:19;;;;;;;4.43;1.10;;;20.20;99.70;;;19.02;51.22;101233.38;4980237;28;20056;-75
2022/05/12 10:14:59;;;;;;;4.22;1.13;;;20.10;99.90;;;19.24;52.44;101231.78;4985108;28;20506;-75
2022/05/12 10:17:45;;;;;;;6.70;1.20;;;20.10;99.90;;;19.19;52.26;101225.94;4980784;28;20041;-74
2022/05/12 10:20:25;;;;;;;1.52;0.52;;;19.80;99.90;;;18.76;52.65;101226.41;4974595;28;20084;-75
2022/05/12 10:23:40;;;;;;;4.20;0.93;;;19.70;99.60;;;18.56;53.15;101217.22;4978149;28;20376;-74
2022/05/12 10:26:37;;;;;;;6.47;1.00;;;19.60;99.90;;;18.52;52.93;101232.56;4970652;28;20045;-75
2022/05/12 10:29:23;;;;;;;8.48;1.67;;;19.60;99.90;;;18.92;52.44;101235.03;4956991;28;20589;-76
2022/05/12 10:32:46;;;;;;;4.18;1.27;;;20.00;99.90;;;19.65;51.46;101238.47;4988356;28;20033;-75
2022/05/12 10:35:55;;;;;;;4.53;1.15;;;20.20;99.90;;;19.74;49.51;101244.94;4962806;28;20043;-76